Time;durP1;ratioP1;P1;durP2;ratioP2;P2;SDS_P1;SDS_P2;PMS_P1;PMS_P2;Temp;Humidity;BMP_temperature;BMP_pressure;BME280_temperature;BME280_humidity;BME280_pressure;Samples;Min_cycle;Max_cycle;Signal;HPM_P1;HPM_P2
2023/08/01 00:01:32;;;;;;;0.00;0.00;;;20.60;99.90;;;;;;5024906;28;20554;-64
2023/08/01 00:03:57;;;;;;;0.00;0.00;;;20.60;99.90;;;;;;5024244;28;20103;-64
2023/08/01 00:06:24;;;;;;;0.00;0.00;;;20.60;99.90;;;;;;5025341;28;20662;-65
2023/08/01 00:08:51;;;;;;;0.00;0.00;;;20.50;99.90;;;;;;5042838;28;20057;-66
2023/08/01 00:11:17;;;;;;;0.00;0.00;;;20.50;99.90;;;;;;5041868;28;20037;-65
2023/08/01 00:13:45;;;;;;;0.00;0.00;;;20.50;99.90;;;;;;5026116;28;20723;-65
2023/08/01 00:16:11;;;;;;;0.03;0.03;;;20.50;99.90;;;;;;5029551;28;20049;-65
2023/08/01 00:18:37;;;;;;;0.00;0.00;;;20.50;99.90;;;;;;5024295;28;20060;-65
2023/08/01 00:21:05;;;;;;;;;;;20.40;99.90;;;;;;5040186;28;20028;-64
2023/08/01 00:23:31;;;;;;;0.10;0.10;;;20.50;99.90;;;;;;5022694;28;20359;-64
2023/08/01 00:25:58;;;;;;;0.00;0.00;;;20.40;99.90;;;;;;5022803;28;20037;-65
2023/08/01 00:28:24;;;;;;;;;;;20.40;99.90;;;;;;5019445;28;20030;-65
2023/08/01 00:30:50;;;;;;;0.00;0.00;;;20.40;99.90;;;;;;5030880;28;19909;-65
2023/08/01 00:33:16;;;;;;;;;;;20.30;99.90;;;;;;5022129;28;20040;-66
2023/08/01 00:35:41;;;;;;;0.00;0.00;;;20.30;99.90;;;;;;5024729;28;19909;-65
2023/08/01 00:38:07;;;;;;;0.00;0.00;;;20.30;99.90;;;;;;5023416;28;20030;-65
2023/08/01 00:40:34;;;;;;;0.00;0.00;;;20.40;99.90;;;;;;5023594;28;20025;-65
2023/08/01 00:42:59;;;;;;;0.00;0.00;;;20.40;99.90;;;;;;5035341;28;20542;-64
2023/08/01 00:45:27;;;;;;;0.00;0.00;;;20.30;99.90;;;;;;5024149;28;20018;-64
2023/08/01 00:47:54;;;;;;;0.00;0.00;;;20.30;99.90;;;;;;5037713;28;20129;-65
2023/08/01 00:50:22;;;;;;;0.00;0.00;;;20.30;99.90;;;;;;5039006;28;20060;-64
2023/08/01 00:52:52;;;;;;;0.00;0.00;;;20.30;99.90;;;;;;5037008;28;20032;-65
2023/08/01 00:55:19;;;;;;;0.00;0.00;;;20.20;99.90;;;;;;5024456;28;20034;-65
2023/08/01 00:57:45;;;;;;;0.00;0.00;;;20.10;99.90;;;;;;5021598;28;20028;-66
2023/08/01 01:00:12;;;;;;;0.00;0.00;;;20.00;99.90;;;;;;5029805;28;20864;-65
2023/08/01 01:02:39;;;;;;;0.00;0.00;;;20.00;99.90;;;;;;5025727;28;20037;-64
2023/08/01 01:05:05;;;;;;;0.00;0.00;;;19.90;99.90;;;;;;5021926;28;20021;-64
2023/08/01 01:07:33;;;;;;;0.00;0.00;;;19.90;99.90;;;;;;5023373;28;20032;-65
2023/08/01 01:09:58;;;;;;;0.00;0.00;;;19.90;99.90;;;;;;5037560;28;20033;-64
2023/08/01 01:12:24;;;;;;;0.00;0.00;;;19.90;99.90;;;;;;5020827;28;20040;-64
2023/08/01 01:14:50;;;;;;;0.10;0.10;;;19.90;99.90;;;;;;5039983;28;20141;-66
2023/08/01 01:17:15;;;;;;;0.00;0.00;;;20.00;99.90;;;;;;5025256;28;20018;-65
2023/08/01 01:19:41;;;;;;;0.00;0.00;;;20.00;99.90;;;;;;5023565;28;20017;-65
2023/08/01 01:22:10;;;;;;;0.00;0.00;;;20.10;99.90;;;;;;5022826;28;20186;-64
2023/08/01 01:24:36;;;;;;;0.00;0.00;;;20.10;99.90;;;;;;5021878;28;20119;-64
2023/08/01 01:27:04;;;;;;;0.17;0.08;;;20.10;99.90;;;;;;5025618;28;20511;-65
2023/08/01 01:29:32;;;;;;;0.00;0.00;;;20.10;99.90;;;;;;5021222;28;20029;-64
2023/08/01 01:32:00;;;;;;;0.00;0.00;;;20.20;99.90;;;;;;5026614;28;20029;-64
2023/08/01 01:34:27;;;;;;;0.00;0.00;;;20.30;99.90;;;;;;5021932;28;20022;-65
2023/08/01 01:36:53;;;;;;;0.00;0.00;;;20.30;99.90;;;;;;5034764;28;20367;-64
2023/08/01 01:39:18;;;;;;;0.00;0.00;;;20.30;99.90;;;;;;5022349;28;20055;-65
2023/08/01 01:41:44;;;;;;;0.05;0.05;;;20.40;99.90;;;;;;5027535;28;20093;-65
2023/08/01 01:44:09;;;;;;;0.00;0.00;;;20.40;99.90;;;;;;5020789;28;20029;-65
2023/08/01 01:46:35;;;;;;;0.00;0.00;;;20.40;99.90;;;;;;5023574;28;20033;-64
2023/08/01 01:49:01;;;;;;;0.00;0.00;;;20.50;99.90;;;;;;5022913;28;20104;-64
2023/08/01 01:51:28;;;;;;;0.00;0.00;;;20.50;99.90;;;;;;5025348;28;20025;-65
2023/08/01 01:53:53;;;;;;;0.03;0.03;;;20.60;99.90;;;;;;5026487;28;20111;-64
2023/08/01 01:56:19;;;;;;;0.00;0.00;;;20.40;99.90;;;;;;5024709;28;20408;-64
2023/08/01 01:58:45;;;;;;;0.00;0.00;;;20.30;99.90;;;;;;5021571;28;20048;-64
2023/08/01 02:01:10;;;;;;;0.00;0.00;;;20.30;99.90;;;;;;5031207;28;20021;-65
2023/08/01 02:03:36;;;;;;;0.05;0.05;;;20.20;99.90;;;;;;5016874;28;20040;-65
2023/08/01 02:06:03;;;;;;;0.65;0.20;;;20.20;99.90;;;;;;5024201;28;20040;-65
2023/08/01 02:08:29;;;;;;;0.00;0.00;;;20.10;99.90;;;;;;5022497;28;20473;-65
2023/08/01 02:10:57;;;;;;;0.85;0.10;;;20.20;99.90;;;;;;5023385;28;20025;-64
2023/08/01 02:13:24;;;;;;;0.00;0.00;;;20.40;99.90;;;;;;5035993;28;20040;-65
2023/08/01 02:15:50;;;;;;;0.00;0.00;;;20.50;99.90;;;;;;5026124;28;20034;-65
2023/08/01 02:18:15;;;;;;;0.00;0.00;;;20.50;99.90;;;;;;5039706;28;20379;-65
2023/08/01 02:20:41;;;;;;;0.00;0.00;;;20.50;99.90;;;;;;5021386;28;21176;-65
2023/08/01 02:23:06;;;;;;;0.10;0.10;;;20.60;99.90;;;;;;5024748;28;20030;-65
2023/08/01 02:25:32;;;;;;;0.10;0.10;;;20.60;99.90;;;;;;5016381;28;20078;-64
2023/08/01 02:27:58;;;;;;;0.00;0.00;;;20.60;99.90;;;;;;5022745;28;20033;-65
2023/08/01 02:30:23;;;;;;;0.00;0.00;;;20.60;99.90;;;;;;5028292;28;20059;-64
2023/08/01 02:32:49;;;;;;;0.00;0.00;;;20.70;99.90;;;;;;5026337;28;20057;-65
2023/08/01 02:35:15;;;;;;;0.00;0.00;;;20.70;99.90;;;;;;5039866;28;20047;-65
2023/08/01 02:37:40;;;;;;;0.00;0.00;;;20.80;99.90;;;;;;5041201;28;20026;-65
2023/08/01 02:40:08;;;;;;;0.00;0.00;;;20.80;99.90;;;;;;5017674;28;20160;-64
2023/08/01 02:42:34;;;;;;;0.00;0.00;;;20.90;99.90;;;;;;5038601;28;20116;-65
2023/08/01 02:45:00;;;;;;;0.00;0.00;;;20.80;99.90;;;;;;5022606;28;21085;-64
2023/08/01 02:47:25;;;;;;;0.00;0.00;;;20.80;99.90;;;;;;5024569;28;20026;-65
2023/08/01 02:49:51;;;;;;;0.00;0.00;;;20.80;99.90;;;;;;5021873;28;20124;-65
2023/08/01 02:52:17;;;;;;;0.00;0.00;;;20.80;99.90;;;;;;5038875;28;20081;-65
2023/08/01 02:54:42;;;;;;;0.00;0.00;;;20.80;99.90;;;;;;5020799;28;20022;-65
2023/08/01 02:57:08;;;;;;;0.00;0.00;;;20.80;99.90;;;;;;5023465;28;20051;-65
2023/08/01 02:59:33;;;;;;;0.20;0.10;;;20.90;99.90;;;;;;5021851;28;20025;-65
2023/08/01 03:01:59;;;;;;;0.00;0.00;;;20.90;99.90;;;;;;5041569;28;20026;-64
2023/08/01 03:04:25;;;;;;;0.00;0.00;;;21.00;99.90;;;;;;5026319;28;20021;-64
2023/08/01 03:06:50;;;;;;;0.00;0.00;;;21.00;99.90;;;;;;5037863;28;20025;-66
2023/08/01 03:09:16;;;;;;;0.00;0.00;;;20.90;99.90;;;;;;5021504;28;20105;-65
2023/08/01 03:11:42;;;;;;;0.00;0.00;;;20.90;99.90;;;;;;5026210;28;20025;-65
2023/08/01 03:14:07;;;;;;;0.00;0.00;;;20.90;99.90;;;;;;5017934;28;20030;-65
2023/08/01 03:16:33;;;;;;;0.22;0.10;;;20.90;99.90;;;;;;5021838;28;20033;-65
2023/08/01 03:19:04;;;;;;;0.00;0.00;;;20.80;99.90;;;;;;5023753;28;20026;-64
2023/08/01 03:21:33;;;;;;;0.00;0.00;;;20.60;99.90;;;;;;5021833;28;20017;-65
2023/08/01 03:23:59;;;;;;;0.00;0.00;;;20.40;99.90;;;;;;5021360;28;20388;-65
2023/08/01 03:26:25;;;;;;;;;;;20.40;99.90;;;;;;5019858;28;20022;-65
2023/08/01 03:28:51;;;;;;;0.00;0.00;;;20.40;99.90;;;;;;5020198;28;20366;-66
2023/08/01 03:31:16;;;;;;;0.00;0.00;;;20.60;99.90;;;;;;5042178;28;20037;-65
2023/08/01 03:33:42;;;;;;;0.00;0.00;;;20.60;99.90;;;;;;5022578;28;20036;-64
2023/08/01 03:36:08;;;;;;;0.00;0.00;;;20.60;99.90;;;;;;5023347;28;20764;-65
2023/08/01 03:38:33;;;;;;;0.80;0.80;;;20.60;99.90;;;;;;5025165;28;20040;-65
2023/08/01 03:40:59;;;;;;;0.00;0.00;;;20.60;99.90;;;;;;5022913;28;20033;-64
2023/08/01 03:43:25;;;;;;;0.00;0.00;;;20.50;99.90;;;;;;5030807;28;20018;-64
2023/08/01 03:45:51;;;;;;;0.00;0.00;;;20.60;99.90;;;;;;5023531;28;20159;-65
2023/08/01 03:48:17;;;;;;;0.00;0.00;;;20.70;99.90;;;;;;5025692;28;20129;-65
2023/08/01 03:50:43;;;;;;;0.00;0.00;;;20.80;99.90;;;;;;5019882;28;20480;-64
2023/08/01 03:53:08;;;;;;;0.00;0.00;;;20.80;99.90;;;;;;5025704;28;20037;-64
2023/08/01 03:55:34;;;;;;;0.10;0.05;;;20.80;99.90;;;;;;5028391;28;20029;-65
2023/08/01 03:57:59;;;;;;;0.00;0.00;;;20.90;99.90;;;;;;5027270;28;20090;-65
2023/08/01 04:00:25;;;;;;;0.00;0.00;;;21.00;99.90;;;;;;5023919;28;20032;-65
2023/08/01 04:02:51;;;;;;;;;;;21.00;99.90;;;;;;5025437;28;20045;-65
2023/08/01 04:05:17;;;;;;;0.00;0.00;;;21.10;99.90;;;;;;5027646;28;19905;-65
2023/08/01 04:07:43;;;;;;;0.00;0.00;;;21.20;99.90;;;;;;5025415;28;20080;-65
2023/08/01 04:10:09;;;;;;;0.00;0.00;;;21.20;99.90;;;;;;5040541;28;20025;-65
2023/08/01 04:12:35;;;;;;;0.00;0.00;;;21.10;99.90;;;;;;5027241;28;20067;-65
2023/08/01 04:15:01;;;;;;;0.00;0.00;;;21.10;99.90;;;;;;5025526;28;20479;-65
2023/08/01 04:17:27;;;;;;;0.08;0.08;;;21.00;99.90;;;;;;5022548;28;20068;-65
2023/08/01 04:19:53;;;;;;;0.00;0.00;;;21.00;99.90;;;;;;5030100;28;20017;-65
2023/08/01 04:22:18;;;;;;;0.00;0.00;;;20.80;99.90;;;;;;5024258;28;20562;-65
2023/08/01 04:24:44;;;;;;;0.00;0.00;;;20.70;99.90;;;;;;5038765;28;20056;-65
2023/08/01 04:27:10;;;;;;;0.30;0.10;;;20.70;99.90;;;;;;5023104;28;20083;-64
2023/08/01 04:29:35;;;;;;;0.22;0.05;;;20.70;99.90;;;;;;5023396;28;20040;-64
2023/08/01 04:32:01;;;;;;;0.00;0.00;;;20.60;99.90;;;;;;5028834;28;20036;-65
2023/08/01 04:34:27;;;;;;;0.00;0.00;;;20.60;99.90;;;;;;5025867;28;20028;-65
2023/08/01 04:36:52;;;;;;;0.00;0.00;;;20.60;99.90;;;;;;5025170;28;20538;-65
2023/08/01 04:39:18;;;;;;;0.00;0.00;;;20.60;99.90;;;;;;5039857;28;20018;-66
2023/08/01 04:41:44;;;;;;;0.00;0.00;;;20.70;99.90;;;;;;5025442;28;20044;-65
2023/08/01 04:44:09;;;;;;;0.00;0.00;;;20.70;99.90;;;;;;5039883;28;20132;-65
2023/08/01 04:46:35;;;;;;;0.00;0.00;;;20.80;99.90;;;;;;5020520;28;20119;-65
2023/08/01 04:49:01;;;;;;;0.00;0.00;;;20.80;99.90;;;;;;5024032;28;20036;-64
2023/08/01 04:51:27;;;;;;;0.00;0.00;;;20.80;99.90;;;;;;5026100;28;20083;-65
2023/08/01 04:53:53;;;;;;;0.10;0.10;;;21.00;99.90;;;;;;5023021;28;20030;-65
2023/08/01 04:56:18;;;;;;;0.00;0.00;;;21.20;99.90;;;;;;5022831;28;20036;-65
2023/08/01 04:58:44;;;;;;;0.00;0.00;;;21.50;99.90;;;;;;5022515;28;20029;-65
2023/08/01 05:01:10;;;;;;;0.00;0.00;;;21.70;99.90;;;;;;5028452;28;20124;-65
2023/08/01 05:03:35;;;;;;;0.00;0.00;;;21.80;99.90;;;;;;5023230;28;20033;-65
2023/08/01 05:06:01;;;;;;;0.00;0.00;;;21.80;99.90;;;;;;5019417;28;20036;-65
2023/08/01 05:08:27;;;;;;;1.13;0.38;;;21.70;99.90;;;;;;5020229;28;20026;-63
2023/08/01 05:10:52;;;;;;;0.03;0.03;;;21.70;99.90;;;;;;5026197;28;20029;-65
2023/08/01 05:13:18;;;;;;;1.65;0.10;;;21.70;99.90;;;;;;5024468;28;20028;-63
2023/08/01 05:15:47;;;;;;;;;;;21.70;99.90;;;;;;5024190;28;20500;-64
2023/08/01 05:18:14;;;;;;;0.00;0.00;;;21.40;99.90;;;;;;5034005;28;20032;-64
2023/08/01 05:20:39;;;;;;;0.00;0.00;;;21.30;99.90;;;;;;5024765;28;20045;-64
2023/08/01 05:23:05;;;;;;;0.00;0.00;;;21.10;99.90;;;;;;5026070;28;20064;-64
2023/08/01 05:25:31;;;;;;;1.17;0.35;;;20.90;99.90;;;;;;5023888;28;20043;-64
2023/08/01 05:27:57;;;;;;;0.00;0.00;;;21.00;99.90;;;;;;5018288;28;20037;-63
2023/08/01 05:30:22;;;;;;;0.00;0.00;;;21.20;99.90;;;;;;5046413;28;20514;-66
2023/08/01 05:32:48;;;;;;;0.00;0.00;;;21.40;99.90;;;;;;5020222;28;20041;-65
2023/08/01 05:35:13;;;;;;;0.22;0.22;;;21.50;99.90;;;;;;5025947;28;20043;-65
2023/08/01 05:37:39;;;;;;;0.00;0.00;;;21.30;99.90;;;;;;5036752;28;20022;-65
2023/08/01 05:40:05;;;;;;;0.00;0.00;;;21.20;99.90;;;;;;5020406;28;20025;-64
2023/08/01 05:42:31;;;;;;;;;;;21.00;99.90;;;;;;5039788;28;20028;-64
2023/08/01 05:44:56;;;;;;;0.00;0.00;;;21.00;99.90;;;;;;5018159;28;20395;-63
2023/08/01 05:47:22;;;;;;;0.00;0.00;;;21.00;99.90;;;;;;5024019;28;20063;-64
2023/08/01 05:49:49;;;;;;;0.00;0.00;;;21.00;99.90;;;;;;5022641;28;20033;-65
2023/08/01 05:52:14;;;;;;;;;;;21.00;99.90;;;;;;5017858;28;20044;-64
2023/08/01 05:54:40;;;;;;;0.00;0.00;;;21.00;99.90;;;;;;5021022;28;19905;-64
2023/08/01 05:57:06;;;;;;;0.00;0.00;;;21.10;99.90;;;;;;5020719;28;20545;-64
2023/08/01 05:59:32;;;;;;;0.00;0.00;;;21.10;99.90;;;;;;5016899;28;20470;-64
2023/08/01 06:01:58;;;;;;;0.03;0.03;;;21.30;99.90;;;;;;5025154;28;20029;-65
2023/08/01 06:04:23;;;;;;;0.00;0.00;;;21.50;99.90;;;;;;5021534;28;20032;-64
2023/08/01 06:06:49;;;;;;;0.00;0.00;;;21.70;99.90;;;;;;5025594;28;20029;-65
2023/08/01 06:09:15;;;;;;;0.00;0.00;;;21.70;99.90;;;;;;5018577;28;20055;-65
2023/08/01 06:11:41;;;;;;;0.00;0.00;;;21.70;99.90;;;;;;5026298;28;20036;-65
2023/08/01 06:14:06;;;;;;;0.00;0.00;;;21.70;99.90;;;;;;5018956;28;20029;-63
2023/08/01 06:16:32;;;;;;;0.00;0.00;;;21.80;99.90;;;;;;5034071;28;20036;-63
2023/08/01 06:18:58;;;;;;;0.00;0.00;;;21.90;99.90;;;;;;5036556;28;20029;-65
2023/08/01 06:21:24;;;;;;;;;;;21.70;99.90;;;;;;5024417;28;20087;-63
2023/08/01 06:23:49;;;;;;;0.00;0.00;;;21.70;99.90;;;;;;5036963;28;19909;-64
2023/08/01 06:26:15;;;;;;;0.00;0.00;;;21.70;99.90;;;;;;5041220;28;20100;-64
2023/08/01 06:28:41;;;;;;;0.20;0.10;;;21.80;99.90;;;;;;5015584;28;20433;-64
2023/08/01 06:31:07;;;;;;;;;;;21.80;99.90;;;;;;5026269;28;20037;-64
2023/08/01 06:33:33;;;;;;;0.00;0.00;;;21.70;99.90;;;;;;5024412;28;19908;-65
2023/08/01 06:35:58;;;;;;;0.00;0.00;;;21.80;99.90;;;;;;5022579;28;20420;-65
2023/08/01 06:38:24;;;;;;;0.00;0.00;;;21.80;99.90;;;;;;5020661;28;20053;-64
2023/08/01 06:40:49;;;;;;;0.00;0.00;;;22.10;99.90;;;;;;5039081;28;20031;-65
2023/08/01 06:43:15;;;;;;;0.00;0.00;;;22.30;99.90;;;;;;5019571;28;20022;-65
2023/08/01 06:45:41;;;;;;;0.00;0.00;;;22.50;99.90;;;;;;5041464;28;20017;-65
2023/08/01 06:48:07;;;;;;;0.00;0.00;;;22.70;99.90;;;;;;5016894;28;20045;-64
2023/08/01 06:50:32;;;;;;;0.00;0.00;;;22.80;99.90;;;;;;5021546;28;20035;-65
2023/08/01 06:52:58;;;;;;;0.00;0.00;;;22.60;99.90;;;;;;5033450;28;20124;-64
2023/08/01 06:55:24;;;;;;;0.00;0.00;;;22.50;99.90;;;;;;5023772;28;20037;-64
2023/08/01 06:57:49;;;;;;;0.00;0.00;;;22.40;99.90;;;;;;5021201;28;20112;-64
2023/08/01 07:00:16;;;;;;;0.00;0.00;;;22.20;99.90;;;;;;5041135;28;20386;-66
2023/08/01 07:02:41;;;;;;;0.20;0.10;;;22.20;99.90;;;;;;5023406;28;20013;-65
2023/08/01 07:05:07;;;;;;;0.00;0.00;;;22.50;99.90;;;;;;5020438;28;20583;-65
2023/08/01 07:07:33;;;;;;;0.00;0.00;;;22.60;99.90;;;;;;5020420;28;20025;-65
2023/08/01 07:09:58;;;;;;;0.05;0.00;;;22.80;99.90;;;;;;5036026;28;20017;-63
2023/08/01 07:12:24;;;;;;;0.00;0.00;;;22.90;99.90;;;;;;5027934;28;20096;-64
2023/08/01 07:14:50;;;;;;;0.00;0.00;;;22.90;99.90;;;;;;5028573;28;20675;-64
2023/08/01 07:17:16;;;;;;;0.10;0.10;;;22.70;99.90;;;;;;5023295;28;20113;-64
2023/08/01 07:19:42;;;;;;;0.03;0.03;;;22.70;99.90;;;;;;5023305;28;20017;-64
2023/08/01 07:22:08;;;;;;;0.00;0.00;;;22.50;99.90;;;;;;5040772;28;20022;-64
2023/08/01 07:24:33;;;;;;;0.00;0.00;;;22.50;99.90;;;;;;5020600;28;20047;-64
2023/08/01 07:26:59;;;;;;;0.00;0.00;;;22.30;99.90;;;;;;5039969;28;20037;-64
2023/08/01 07:29:25;;;;;;;0.43;0.10;;;22.20;99.90;;;;;;5025333;28;20119;-63
2023/08/01 07:31:50;;;;;;;0.00;0.00;;;22.20;99.90;;;;;;5031848;28;20029;-64
2023/08/01 07:34:16;;;;;;;0.00;0.00;;;22.20;99.90;;;;;;5040717;28;20025;-65
2023/08/01 07:36:42;;;;;;;0.00;0.00;;;22.40;99.90;;;;;;5028756;28;20281;-65
2023/08/01 07:39:08;;;;;;;0.00;0.00;;;22.70;99.90;;;;;;5037156;28;20111;-65
2023/08/01 07:41:34;;;;;;;0.00;0.00;;;22.90;99.90;;;;;;5027681;28;20107;-65
2023/08/01 07:44:03;;;;;;;0.03;0.03;;;23.00;99.90;;;;;;5027059;28;20028;-64
2023/08/01 07:46:29;;;;;;;0.00;0.00;;;22.80;99.90;;;;;;5034663;28;20025;-64
2023/08/01 07:48:54;;;;;;;0.00;0.00;;;22.70;99.90;;;;;;5024386;28;20446;-64
2023/08/01 07:51:20;;;;;;;1.00;0.35;;;22.60;99.90;;;;;;5023879;28;20491;-64
2023/08/01 07:53:45;;;;;;;0.00;0.00;;;22.50;99.90;;;;;;5020344;28;20021;-65
2023/08/01 07:56:11;;;;;;;0.00;0.00;;;22.60;99.90;;;;;;5022885;28;20037;-64
2023/08/01 07:58:37;;;;;;;0.00;0.00;;;22.60;99.90;;;;;;5020080;28;20095;-63
2023/08/01 08:01:04;;;;;;;0.00;0.00;;;22.50;99.90;;;;;;5027549;28;20582;-64
2023/08/01 08:03:30;;;;;;;1.25;0.10;;;22.50;99.90;;;;;;5022670;28;20017;-65
2023/08/01 08:05:56;;;;;;;0.00;0.00;;;22.70;99.90;;;;;;5019406;28;20087;-65
2023/08/01 08:08:21;;;;;;;0.00;0.00;;;22.70;99.90;;;;;;5026621;28;20048;-63
2023/08/01 08:10:47;;;;;;;0.10;0.10;;;22.40;99.90;;;;;;5024119;28;20034;-64
2023/08/01 08:13:13;;;;;;;0.00;0.00;;;22.20;99.90;;;;;;5044600;28;20140;-64
2023/08/01 08:15:38;;;;;;;0.00;0.00;;;22.20;99.90;;;;;;5023996;28;20034;-64
2023/08/01 08:18:04;;;;;;;0.00;0.00;;;22.00;99.90;;;;;;5024924;28;20029;-63
2023/08/01 08:20:31;;;;;;;0.00;0.00;;;21.90;99.90;;;;;;5018232;28;20129;-63
2023/08/01 08:22:57;;;;;;;0.00;0.00;;;21.80;99.90;;;;;;5024473;28;20477;-64
2023/08/01 08:25:23;;;;;;;0.00;0.00;;;21.80;99.90;;;;;;5020779;28;20024;-63
2023/08/01 08:27:51;;;;;;;1.38;0.13;;;21.70;99.90;;;;;;5018752;28;20425;-64
2023/08/01 08:30:17;;;;;;;0.00;0.00;;;21.70;99.90;;;;;;5027490;28;20471;-63
2023/08/01 08:32:43;;;;;;;0.00;0.00;;;21.70;99.90;;;;;;5025498;28;20025;-64
2023/08/01 08:35:08;;;;;;;0.00;0.00;;;21.80;99.90;;;;;;5016467;28;20136;-65
2023/08/01 08:37:34;;;;;;;0.00;0.00;;;21.70;99.90;;;;;;5024395;28;20025;-64
2023/08/01 08:39:59;;;;;;;0.10;0.10;;;21.80;99.90;;;;;;5023175;28;20057;-63
2023/08/01 08:42:25;;;;;;;0.10;0.10;;;21.90;99.90;;;;;;5025991;28;20100;-64
2023/08/01 08:44:55;;;;;;;0.00;0.00;;;21.80;99.90;;;;;;5040090;28;20183;-64
2023/08/01 08:47:25;;;;;;;0.00;0.00;;;21.60;99.90;;;;;;5021006;28;20018;-64
2023/08/01 08:49:52;;;;;;;0.22;0.22;;;21.50;99.90;;;;;;5023514;28;20024;-64
2023/08/01 08:52:19;;;;;;;0.00;0.00;;;21.70;99.90;;;;;;5022044;28;20029;-64
2023/08/01 08:54:46;;;;;;;0.00;0.00;;;21.80;99.90;;;;;;5038830;28;20032;-63
2023/08/01 08:57:12;;;;;;;0.10;0.10;;;21.70;99.90;;;;;;5020313;28;20033;-64
2023/08/01 08:59:39;;;;;;;0.00;0.00;;;21.60;99.90;;;;;;5021929;28;20103;-64
2023/08/01 09:02:05;;;;;;;0.00;0.00;;;21.60;99.90;;;;;;5026985;28;20021;-65
2023/08/01 09:04:33;;;;;;;0.00;0.00;;;21.60;99.90;;;;;;5022282;28;20114;-65
2023/08/01 09:07:05;;;;;;;0.00;0.00;;;21.70;99.90;;;;;;5017077;28;20033;-64
2023/08/01 09:09:32;;;;;;;0.00;0.00;;;21.90;99.90;;;;;;5024589;28;20021;-63
2023/08/01 09:11:58;;;;;;;0.00;0.00;;;22.00;99.90;;;;;;5024760;28;20074;-64
2023/08/01 09:14:24;;;;;;;0.00;0.00;;;22.20;99.90;;;;;;5024994;28;20033;-63
2023/08/01 09:16:50;;;;;;;0.00;0.00;;;22.30;99.90;;;;;;5021689;28;20029;-64
2023/08/01 09:19:21;;;;;;;0.00;0.00;;;22.30;99.90;;;;;;5023879;28;20037;-64
2023/08/01 09:21:47;;;;;;;0.00;0.00;;;22.10;99.90;;;;;;5026151;28;20029;-64
2023/08/01 09:24:21;;;;;;;0.20;0.20;;;22.00;99.90;;;;;;5040985;28;20034;-64
2023/08/01 09:26:48;;;;;;;0.00;0.00;;;22.20;99.90;;;;;;5021779;28;20025;-63
2023/08/01 09:29:17;;;;;;;0.00;0.00;;;22.40;99.90;;;;;;5020560;28;20551;-64
2023/08/01 09:31:43;;;;;;;0.00;0.00;;;22.30;99.90;;;;;;5039905;28;20028;-65
2023/08/01 09:34:23;;;;;;;0.30;0.10;;;22.20;99.90;;;;;;5021790;28;20021;-65
2023/08/01 09:36:49;;;;;;;0.00;0.00;;;22.10;99.90;;;;;;5023100;28;20041;-63
2023/08/01 09:39:17;;;;;;;0.13;0.00;;;22.10;99.90;;;;;;5028290;28;20443;-64
2023/08/01 09:41:43;;;;;;;0.00;0.00;;;22.20;99.90;;;;;;5043573;28;20109;-63
2023/08/01 09:44:16;;;;;;;0.00;0.00;;;22.20;99.90;;;;;;5018548;28;20029;-63
2023/08/01 09:46:43;;;;;;;0.00;0.00;;;22.20;99.90;;;;;;5021916;28;20442;-64
2023/08/01 09:49:12;;;;;;;0.00;0.00;;;22.10;99.90;;;;;;5022403;28;20577;-63
2023/08/01 09:51:48;;;;;;;0.00;0.00;;;22.00;99.90;;;;;;5024464;28;20025;-64
2023/08/01 09:54:15;;;;;;;0.00;0.00;;;22.10;99.90;;;;;;5021624;28;20778;-63
2023/08/01 09:56:45;;;;;;;0.00;0.00;;;22.10;99.90;;;;;;5039297;28;20061;-65
2023/08/01 09:59:11;;;;;;;0.00;0.00;;;22.10;99.90;;;;;;5032906;28;20025;-66
2023/08/01 10:01:38;;;;;;;;;;;22.10;99.90;;;;;;5053125;28;20771;-64
2023/08/01 10:04:04;;;;;;;0.00;0.00;;;22.00;99.90;;;;;;5052744;28;19909;-64
2023/08/01 10:06:35;;;;;;;0.00;0.00;;;21.90;99.90;;;;;;5031803;28;20466;-65
2023/08/01 10:09:02;;;;;;;0.00;0.00;;;21.70;99.90;;;;;;5035032;28;20500;-65
2023/08/01 10:11:33;;;;;;;0.00;0.00;;;21.50;99.90;;;;;;5030702;28;20044;-64
2023/08/01 10:14:00;;;;;;;0.00;0.00;;;21.30;99.90;;;;;;5031334;28;20025;-63
2023/08/01 10:16:26;;;;;;;0.00;0.00;;;21.10;99.90;;;;;;5037471;28;20035;-64
2023/08/01 10:18:54;;;;;;;0.28;0.28;;;21.10;99.90;;;;;;5052467;28;20080;-68
2023/08/01 10:21:20;;;;;;;0.00;0.00;;;21.00;99.90;;;;;;5028391;28;20096;-63
2023/08/01 10:23:47;;;;;;;0.00;0.00;;;20.90;99.90;;;;;;5022051;28;20479;-64
2023/08/01 10:26:13;;;;;;;0.03;0.03;;;20.80;99.90;;;;;;5035447;28;20047;-64
2023/08/01 10:28:50;;;;;;;0.00;0.00;;;20.60;99.90;;;;;;5024042;28;20025;-63
2023/08/01 10:31:18;;;;;;;0.00;0.00;;;20.20;99.90;;;;;;5026684;28;20022;-63
2023/08/01 10:33:46;;;;;;;0.00;0.00;;;20.00;99.90;;;;;;5024427;28;20025;-64
2023/08/01 10:36:18;;;;;;;0.00;0.00;;;19.80;99.90;;;;;;5033191;28;20071;-64
2023/08/01 10:38:52;;;;;;;0.00;0.00;;;19.80;99.90;;;;;;5035659;28;20044;-64
2023/08/01 10:41:32;;;;;;;0.00;0.00;;;20.00;99.90;;;;;;5022743;28;20346;-64
2023/08/01 10:44:15;;;;;;;0.00;0.00;;;20.20;99.90;;;;;;5038981;28;20029;-64
2023/08/01 10:47:00;;;;;;;0.00;0.00;;;20.10;99.90;;;;;;5032153;28;20029;-65
2023/08/01 10:49:40;;;;;;;0.00;0.00;;;20.20;99.90;;;;;;5017298;28;20259;-65
2023/08/01 10:52:21;;;;;;;0.00;0.00;;;20.30;99.90;;;;;;5022008;28;20503;-64
2023/08/01 10:54:47;;;;;;;0.00;0.00;;;20.30;99.90;;;;;;5016401;28;20025;-64
2023/08/01 10:57:17;;;;;;;0.00;0.00;;;20.30;99.90;;;;;;5019143;28;20073;-65
2023/08/01 10:59:44;;;;;;;0.00;0.00;;;20.30;99.90;;;;;;5019906;28;20022;-64
2023/08/01 11:02:10;;;;;;;0.00;0.00;;;20.20;99.90;;;;;;5046787;28;20121;-64
2023/08/01 11:04:36;;;;;;;0.00;0.00;;;20.00;99.90;;;;;;5036399;28;20242;-63
2023/08/01 11:07:02;;;;;;;0.00;0.00;;;20.00;99.90;;;;;;5020796;28;20534;-65
2023/08/01 11:09:28;;;;;;;0.00;0.00;;;19.80;99.90;;;;;;5020767;28;20072;-66
2023/08/01 11:11:58;;;;;;;0.00;0.00;;;19.80;99.90;;;;;;5025539;28;20032;-63
2023/08/01 11:14:25;;;;;;;0.00;0.00;;;19.80;99.90;;;;;;5020289;28;20484;-64
2023/08/01 11:16:54;;;;;;;0.00;0.00;;;19.80;99.90;;;;;;5021087;28;20033;-64
2023/08/01 11:19:20;;;;;;;0.00;0.00;;;19.60;99.90;;;;;;5019848;28;20021;-64
2023/08/01 11:21:46;;;;;;;0.08;0.08;;;19.60;99.90;;;;;;5021846;28;20032;-65
2023/08/01 11:24:12;;;;;;;0.00;0.00;;;19.60;99.90;;;;;;5022676;28;20382;-65
2023/08/01 11:26:46;;;;;;;0.00;0.00;;;19.60;99.90;;;;;;5032685;28;20029;-64
2023/08/01 11:29:13;;;;;;;0.03;0.03;;;19.70;99.90;;;;;;5020957;28;20337;-63
2023/08/01 11:31:43;;;;;;;0.00;0.00;;;19.80;99.90;;;;;;5026748;28;20491;-62
2023/08/01 11:34:10;;;;;;;0.00;0.00;;;19.80;99.90;;;;;;5019052;28;20097;-61
2023/08/01 11:36:36;;;;;;;0.00;0.00;;;19.80;99.90;;;;;;5020417;28;20048;-64
2023/08/01 11:39:02;;;;;;;0.00;0.00;;;19.60;99.90;;;;;;5020427;28;20391;-65
2023/08/01 11:41:29;;;;;;;0.00;0.00;;;19.50;99.90;;;;;;5022957;28;20029;-64
2023/08/01 11:43:55;;;;;;;0.00;0.00;;;19.50;99.90;;;;;;5019538;28;20396;-63
2023/08/01 11:46:22;;;;;;;0.00;0.00;;;19.50;99.90;;;;;;5035679;28;20022;-64
2023/08/01 11:48:50;;;;;;;0.00;0.00;;;19.60;99.90;;;;;;5021114;28;20025;-64
2023/08/01 11:51:16;;;;;;;0.00;0.00;;;19.60;99.90;;;;;;5018598;28;20940;-64
2023/08/01 11:53:41;;;;;;;0.00;0.00;;;19.70;99.90;;;;;;5020000;28;20354;-65
2023/08/01 11:56:07;;;;;;;0.05;0.05;;;19.60;99.90;;;;;;5021509;28;20051;-64
2023/08/01 11:58:41;;;;;;;0.00;0.00;;;19.50;99.90;;;;;;5022956;28;20025;-64
2023/08/01 12:01:09;;;;;;;0.00;0.00;;;19.30;99.90;;;;;;5029440;28;20166;-64
2023/08/01 12:03:46;;;;;;;0.00;0.00;;;19.30;99.90;;;;;;5024232;28;20087;-64
2023/08/01 12:06:13;;;;;;;0.15;0.15;;;19.30;99.90;;;;;;5035655;28;20025;-64
2023/08/01 12:08:41;;;;;;;0.00;0.00;;;19.60;99.90;;;;;;5020601;28;20025;-63
2023/08/01 12:11:23;;;;;;;0.00;0.00;;;19.80;99.90;;;;;;5026086;28;20036;-64
2023/08/01 12:14:03;;;;;;;0.00;0.00;;;19.90;99.90;;;;;;5020848;28;20032;-65
2023/08/01 12:16:28;;;;;;;0.00;0.00;;;19.80;99.90;;;;;;5038607;28;20128;-64
2023/08/01 12:18:54;;;;;;;0.00;0.00;;;19.90;99.90;;;;;;5021261;28;20124;-64
2023/08/01 12:21:20;;;;;;;1.00;0.30;;;19.80;99.90;;;;;;5025122;28;20017;-64
2023/08/01 12:23:46;;;;;;;0.00;0.00;;;19.70;99.90;;;;;;5033672;28;20954;-65
2023/08/01 12:26:12;;;;;;;0.35;0.05;;;19.60;99.90;;;;;;5020690;28;20029;-64
2023/08/01 12:28:37;;;;;;;0.00;0.00;;;19.40;99.90;;;;;;5037596;28;20476;-64
2023/08/01 12:31:04;;;;;;;0.00;0.00;;;19.40;99.90;;;;;;5022837;28;20021;-64
2023/08/01 12:33:30;;;;;;;0.00;0.00;;;19.40;99.90;;;;;;5038606;28;20029;-64
2023/08/01 12:35:55;;;;;;;0.57;0.10;;;19.40;99.90;;;;;;5023074;28;20075;-65
2023/08/01 12:38:21;;;;;;;0.00;0.00;;;19.50;99.90;;;;;;5026365;28;20376;-64
2023/08/01 12:40:47;;;;;;;0.00;0.00;;;19.40;99.90;;;;;;5025663;28;20056;-63
2023/08/01 12:43:14;;;;;;;0.00;0.00;;;19.40;99.90;;;;;;5021421;28;20478;-64
2023/08/01 12:45:40;;;;;;;0.00;0.00;;;19.30;99.90;;;;;;5040012;28;20112;-65
2023/08/01 12:48:05;;;;;;;0.00;0.00;;;19.30;99.90;;;;;;5035950;28;20119;-65